Time;durP1;ratioP1;P1;durP2;ratioP2;P2;SDS_P1;SDS_P2;PMS_P1;PMS_P2;Temp;Humidity;BMP_temperature;BMP_pressure;BME280_temperature;BME280_humidity;BME280_pressure;Samples;Min_cycle;Max_cycle;Signal;HPM_P1;HPM_P2
2021/07/04 00:00:22;;;;;;;8.68;7.05;;;;;;;18.14;nan;100322.41;5067600;28;20037;-78
2021/07/04 00:02:50;;;;;;;8.82;6.90;;;;;;;18.16;nan;100320.56;5066030;28;20041;-78
2021/07/04 00:05:17;;;;;;;8.18;7.18;;;;;;;18.20;nan;100316.81;5068705;28;20055;-78
2021/07/04 00:07:43;;;;;;;7.78;6.78;;;;;;;18.23;nan;100319.34;5068601;28;20056;-77
2021/07/04 00:10:10;;;;;;;9.35;8.07;;;;;;;18.24;nan;100321.09;5067790;28;20041;-78
2021/07/04 00:12:36;;;;;;;9.95;8.55;;;;;;;18.20;nan;100319.47;5069472;28;20036;-78
2021/07/04 00:15:06;;;;;;;8.50;6.95;;;;;;;18.15;nan;100322.31;5069719;28;20036;-78
2021/07/04 00:17:31;;;;;;;7.85;6.55;;;;;;;18.23;nan;100316.69;5063046;28;20032;-78
2021/07/04 00:19:57;;;;;;;8.25;7.10;;;;;;;18.23;nan;100321.16;5066231;28;20037;-77
2021/07/04 00:22:22;;;;;;;10.18;7.30;;;;;;;18.16;nan;100315.22;5068164;28;20056;-76
2021/07/04 00:24:47;;;;;;;8.27;6.55;;;;;;;18.02;nan;100318.41;5064153;28;20052;-77
2021/07/04 00:27:13;;;;;;;7.07;6.25;;;;;;;17.99;nan;100312.34;5066927;28;20044;-77
2021/07/04 00:29:38;;;;;;;9.88;7.40;;;;;;;17.98;nan;100311.47;5069137;28;20036;-77
2021/07/04 00:32:04;;;;;;;10.15;7.45;;;;;;;17.98;nan;100314.16;5067527;28;20593;-78
2021/07/04 00:34:29;;;;;;;7.97;6.75;;;;;;;17.92;nan;100315.28;5072769;28;20020;-78
2021/07/04 00:36:54;;;;;;;8.85;7.40;;;;;;;17.91;nan;100318.84;5071529;28;20041;-78
2021/07/04 00:39:20;;;;;;;8.52;6.97;;;;;;;17.88;nan;100312.78;5069791;28;20037;-77
2021/07/04 00:41:45;;;;;;;7.63;6.80;;;;;;;17.79;nan;100315.75;5071307;28;20048;-78
2021/07/04 00:44:11;;;;;;;9.77;7.40;;;;;;;17.68;nan;100308.19;5069730;28;20033;-76
2021/07/04 00:46:36;;;;;;;7.95;6.93;;;;;;;17.60;nan;100311.16;5070428;28;20103;-78
2021/07/04 00:49:01;;;;;;;9.20;6.32;;;;;;;17.59;nan;100305.88;5072854;28;20033;-77
2021/07/04 00:51:29;;;;;;;7.80;6.70;;;;;;;17.52;nan;100299.91;5071174;28;20060;-77
2021/07/04 00:53:55;;;;;;;9.05;7.63;;;;;;;17.39;nan;100303.97;5070691;28;20483;-77
2021/07/04 00:56:21;;;;;;;9.02;7.50;;;;;;;17.28;nan;100299.91;5071956;28;20084;-77
2021/07/04 00:58:47;;;;;;;8.00;7.20;;;;;;;17.22;nan;100299.28;5069801;28;20033;-78
2021/07/04 01:01:12;;;;;;;8.98;7.22;;;;;;;17.12;nan;100300.53;5068187;28;20032;-77
2021/07/04 01:03:38;;;;;;;8.25;6.85;;;;;;;17.11;nan;100298.78;5071892;28;20494;-76
2021/07/04 01:06:04;;;;;;;9.30;7.45;;;;;;;17.07;nan;100304.22;5068261;28;20075;-78
2021/07/04 01:08:29;;;;;;;7.97;7.00;;;;;;;17.03;nan;100307.09;5069609;28;20483;-77
2021/07/04 01:10:56;;;;;;;10.95;8.65;;;;;;;16.97;nan;100307.28;5070759;28;20040;-77
2021/07/04 01:13:27;;;;;;;9.43;7.97;;;;;;;16.85;nan;100298.81;5069099;28;20051;-78
2021/07/04 01:16:00;;;;;;;8.70;7.80;;;;;;;16.75;nan;100307.16;5068806;28;20057;-77
2021/07/04 01:18:26;;;;;;;9.43;8.43;;;;;;;16.52;nan;100300.84;5067126;28;20025;-77
2021/07/04 01:20:59;;;;;;;8.45;7.55;;;;;;;16.41;nan;100308.31;5050510;28;20033;-76
2021/07/04 01:23:24;;;;;;;10.13;6.55;;;;;;;16.40;nan;100312.78;5064942;28;20064;-77
2021/07/04 01:25:55;;;;;;;7.75;6.90;;;;;;;16.36;nan;100311.13;5065404;28;20056;-77
2021/07/04 01:28:26;;;;;;;10.80;9.05;;;;;;;16.31;nan;100305.09;5061643;28;20068;-77
2021/07/04 01:30:58;;;;;;;10.93;9.55;;;;;;;16.37;nan;100320.88;5065612;28;20041;-77
2021/07/04 01:33:28;;;;;;;8.75;7.85;;;;;;;16.46;nan;100319.69;5062802;28;20108;-76
2021/07/04 01:35:54;;;;;;;10.55;7.68;;;;;;;16.50;nan;100312.47;5067565;28;20112;-77
2021/07/04 01:38:21;;;;;;;10.10;8.18;;;;;;;16.54;nan;100309.66;5067447;28;20024;-77
2021/07/04 01:40:48;;;;;;;9.23;8.32;;;;;;;16.62;nan;100317.38;5065587;28;20078;-77
2021/07/04 01:43:15;;;;;;;9.35;8.40;;;;;;;16.72;nan;100313.47;5065743;28;20082;-76
2021/07/04 01:45:41;;;;;;;10.43;8.32;;;;;;;16.87;nan;100312.06;5067821;28;20113;-76
2021/07/04 01:48:08;;;;;;;9.75;7.82;;;;;;;16.95;nan;100310.03;5067469;28;20485;-77
2021/07/04 01:50:40;;;;;;;8.82;7.88;;;;;;;17.01;nan;100307.13;5065618;28;20079;-77
2021/07/04 01:53:06;;;;;;;9.45;8.43;;;;;;;17.06;nan;100310.50;5063466;28;20033;-77
2021/07/04 01:55:31;;;;;;;10.10;9.10;;;;;;;17.05;nan;100311.41;5067595;28;20394;-77
2021/07/04 01:57:58;;;;;;;11.73;8.88;;;;;;;17.06;nan;100305.19;5068339;28;20056;-76
2021/07/04 02:00:33;;;;;;;9.25;8.20;;;;;;;17.05;nan;100306.09;5045090;28;20091;-76
2021/07/04 02:03:10;;;;;;;9.85;8.50;;;;;;;17.04;nan;100308.81;5063038;28;20029;-76
2021/07/04 02:05:55;;;;;;;8.48;7.57;;;;;;;17.00;nan;100305.41;5061329;28;20036;-76
2021/07/04 02:08:25;;;;;;;9.07;8.10;;;;;;;16.91;nan;100310.19;5064972;28;20036;-76
2021/07/04 02:10:57;;;;;;;8.90;7.82;;;;;;;16.87;nan;100312.06;5063272;28;20502;-76
2021/07/04 02:13:23;;;;;;;8.60;7.70;;;;;;;16.86;nan;100308.53;5061974;28;20090;-76
2021/07/04 02:15:51;;;;;;;9.05;7.72;;;;;;;16.81;nan;100299.84;5062875;28;20487;-75
2021/07/04 02:18:35;;;;;;;10.38;8.18;;;;;;;16.67;nan;100303.91;5064896;28;20649;-76
2021/07/04 02:21:19;;;;;;;9.60;8.65;;;;;;;16.59;nan;100307.69;5065262;28;20044;-76
2021/07/04 02:23:58;;;;;;;9.60;7.90;;;;;;;16.59;nan;100307.69;5063363;28;20031;-76
2021/07/04 02:26:42;;;;;;;12.80;9.63;;;;;;;16.54;nan;100309.66;5055373;28;20051;-76
2021/07/04 02:29:15;;;;;;;12.55;10.35;;;;;;;16.49;nan;100313.41;5055071;28;20576;-76
2021/07/04 02:31:45;;;;;;;10.93;9.85;;;;;;;16.43;nan;100312.69;5058437;28;20039;-74
2021/07/04 02:34:13;;;;;;;10.38;9.27;;;;;;;16.40;nan;100317.22;5059612;28;20500;-76
2021/07/04 02:36:47;;;;;;;9.65;8.70;;;;;;;16.34;nan;100312.09;5041950;28;20047;-76
2021/07/04 02:39:17;;;;;;;11.50;9.48;;;;;;;16.33;nan;100313.91;5058725;28;20036;-76
2021/07/04 02:41:44;;;;;;;10.38;8.90;;;;;;;16.22;nan;100313.41;5052825;28;20090;-76
2021/07/04 02:44:11;;;;;;;10.13;8.65;;;;;;;16.24;nan;100308.88;5059559;28;20032;-76
2021/07/04 02:46:39;;;;;;;10.32;8.85;;;;;;;16.27;nan;100305.22;5062007;28;20037;-76
2021/07/04 02:49:06;;;;;;;13.82;10.38;;;;;;;16.27;nan;100315.88;5062271;28;20040;-77
2021/07/04 02:51:32;;;;;;;11.73;9.30;;;;;;;16.14;nan;100299.47;5061072;28;20063;-76
2021/07/04 02:53:59;;;;;;;10.77;9.68;;;;;;;16.05;nan;100311.28;5061372;28;20115;-76
2021/07/04 02:56:24;;;;;;;9.48;8.57;;;;;;;16.07;nan;100309.44;5061910;28;20127;-75
2021/07/04 02:58:50;;;;;;;11.18;8.88;;;;;;;16.08;nan;100303.19;5059747;28;20396;-76
2021/07/04 03:01:16;;;;;;;11.35;8.80;;;;;;;16.07;nan;100308.56;5045172;28;20025;-76
2021/07/04 03:03:42;;;;;;;10.65;8.23;;;;;;;15.96;nan;100303.59;5061859;28;20487;-77
2021/07/04 03:06:08;;;;;;;14.70;11.63;;;;;;;15.90;nan;100301.09;5060370;28;20036;-76
2021/07/04 03:08:35;;;;;;;12.57;10.30;;;;;;;15.85;nan;100306.59;5064043;28;20040;-77
2021/07/04 03:11:02;;;;;;;12.13;10.70;;;;;;;15.72;nan;100303.44;5066632;28;20036;-77
2021/07/04 03:13:31;;;;;;;14.95;10.65;;;;;;;15.67;nan;100305.34;5064205;28;20048;-77
2021/07/04 03:16:00;;;;;;;10.95;9.85;;;;;;;15.66;nan;100306.25;5066052;28;20035;-76
2021/07/04 03:18:26;;;;;;;10.80;9.10;;;;;;;15.65;nan;100306.31;5066443;28;20036;-77
2021/07/04 03:20:52;;;;;;;11.70;9.18;;;;;;;15.60;nan;100306.44;5058969;28;20048;-78
2021/07/04 03:23:18;;;;;;;11.35;9.55;;;;;;;15.59;nan;100310.03;5066740;28;20112;-78
2021/07/04 03:25:48;;;;;;;14.98;8.98;;;;;;;15.61;nan;100310.84;5064764;28;20033;-78
2021/07/04 03:28:15;;;;;;;10.57;9.48;;;;;;;15.55;nan;100311.88;5066321;28;20043;-77
2021/07/04 03:30:42;;;;;;;10.50;9.50;;;;;;;15.54;nan;100319.94;5069983;28;20046;-77
2021/07/04 03:33:07;;;;;;;13.00;10.60;;;;;;;15.59;nan;100317.13;5066454;28;20033;-77
2021/07/04 03:35:33;;;;;;;11.63;9.40;;;;;;;15.56;nan;100318.97;5068519;28;20509;-77
2021/07/04 03:38:04;;;;;;;11.27;9.90;;;;;;;15.53;nan;100318.19;5067671;28;20020;-77
2021/07/04 03:40:31;;;;;;;10.25;9.15;;;;;;;15.57;nan;100320.72;5060804;28;20406;-77
2021/07/04 03:43:06;;;;;;;12.30;8.75;;;;;;;15.60;nan;100314.44;5064016;28;20021;-77
2021/07/04 03:45:36;;;;;;;11.23;10.02;;;;;;;15.66;nan;100314.22;5062132;28;20032;-76
2021/07/04 03:48:05;;;;;;;11.30;9.88;;;;;;;15.68;nan;100312.41;5061512;28;20035;-76
2021/07/04 03:50:39;;;;;;;13.05;9.98;;;;;;;15.73;nan;100314.97;5055119;28;20701;-76
2021/07/04 03:53:05;;;;;;;13.07;11.75;;;;;;;15.73;nan;100313.16;5061763;28;20037;-76
2021/07/04 03:55:32;;;;;;;14.43;11.48;;;;;;;15.72;nan;100315.88;5048053;28;20032;-77
2021/07/04 03:57:58;;;;;;;15.57;11.50;;;;;;;15.67;nan;100313.31;5062029;28;20033;-76
2021/07/04 04:00:37;;;;;;;11.02;9.93;;;;;;;15.62;nan;100317.91;5046193;28;20033;-77
2021/07/04 04:03:09;;;;;;;;;;;;;;;15.61;nan;100308.16;5064204;28;20400;-77
2021/07/04 04:05:44;;;;;;;13.10;11.00;;;;;;;15.66;nan;100311.56;5043568;28;19920;-77
2021/07/04 04:08:10;;;;;;;12.15;10.73;;;;;;;15.69;nan;100311.53;5065534;28;20054;-77
2021/07/04 04:10:39;;;;;;;13.98;11.90;;;;;;;15.70;nan;100305.28;5068124;28;20036;-76
2021/07/04 04:13:11;;;;;;;13.90;11.10;;;;;;;15.78;nan;100308.56;5067311;28;20039;-77
2021/07/04 04:15:38;;;;;;;15.32;13.35;;;;;;;15.90;nan;100304.66;5066334;28;20036;-76
2021/07/04 04:18:06;;;;;;;14.05;11.40;;;;;;;16.00;nan;100315.88;5067768;28;20035;-77
2021/07/04 04:20:32;;;;;;;12.32;11.02;;;;;;;16.08;nan;100316.50;5067239;28;20513;-76
2021/07/04 04:23:00;;;;;;;12.52;11.23;;;;;;;16.21;nan;100308.97;5065354;28;20029;-77
2021/07/04 04:25:26;;;;;;;11.80;10.10;;;;;;;16.31;nan;100307.75;5067080;28;20087;-77
2021/07/04 04:27:53;;;;;;;11.73;10.52;;;;;;;16.44;nan;100316.22;5067650;28;20028;-77
2021/07/04 04:30:20;;;;;;;11.57;10.38;;;;;;;16.56;nan;100317.59;5066209;28;20039;-77
2021/07/04 04:32:47;;;;;;;12.82;10.13;;;;;;;16.61;nan;100308.53;5071551;28;20029;-79
2021/07/04 04:35:13;;;;;;;12.52;10.88;;;;;;;16.70;nan;100319.78;5070669;28;20040;-78
2021/07/04 04:37:38;;;;;;;13.32;10.80;;;;;;;16.75;nan;100320.50;5069954;28;20491;-79
2021/07/04 04:40:06;;;;;;;12.02;10.82;;;;;;;16.89;nan;100315.56;5070791;28;20403;-77
2021/07/04 04:42:34;;;;;;;11.30;9.95;;;;;;;17.05;nan;100326.53;5071119;28;20501;-77
2021/07/04 04:44:59;;;;;;;11.45;10.05;;;;;;;17.16;nan;100324.38;5065294;28;20029;-77
2021/07/04 04:47:24;;;;;;;11.77;10.43;;;;;;;17.27;nan;100329.31;5070322;28;20524;-78
2021/07/04 04:49:49;;;;;;;12.70;10.23;;;;;;;17.36;nan;100320.09;5069508;28;20495;-77
2021/07/04 04:52:15;;;;;;;11.60;10.43;;;;;;;17.45;nan;100331.31;5066179;28;20044;-77
2021/07/04 04:54:40;;;;;;;12.80;11.60;;;;;;;17.49;nan;100327.56;5068511;28;20036;-77
2021/07/04 04:57:06;;;;;;;11.77;10.57;;;;;;;17.57;nan;100323.75;5068736;28;20043;-77
2021/07/04 04:59:36;;;;;;;12.88;10.93;;;;;;;17.69;nan;100331.28;5067282;28;20041;-77
2021/07/04 05:02:03;;;;;;;12.45;11.15;;;;;;;17.78;nan;100330.06;5069095;28;20036;-77
2021/07/04 05:04:28;;;;;;;14.23;11.00;;;;;;;17.82;nan;100323.72;5069254;28;20040;-77
2021/07/04 05:06:54;;;;;;;11.35;9.30;;;;;;;17.86;nan;100320.84;5066740;28;20044;-77
2021/07/04 05:09:19;;;;;;;12.02;9.75;;;;;;;17.83;nan;100318.28;5067141;28;20040;-77
2021/07/04 05:11:45;;;;;;;10.57;9.57;;;;;;;17.97;nan;100323.06;5066548;28;20039;-77
2021/07/04 05:14:14;;;;;;;12.27;9.18;;;;;;;18.06;nan;100316.50;5065786;28;20048;-77
2021/07/04 05:16:39;;;;;;;11.75;8.93;;;;;;;18.11;nan;100322.53;5067432;28;20048;-77
2021/07/04 05:19:07;;;;;;;8.93;8.00;;;;;;;18.27;nan;100326.31;5067191;28;20048;-77
2021/07/04 05:21:33;;;;;;;9.20;8.18;;;;;;;18.40;nan;100324.88;5065123;28;20063;-77
2021/07/04 05:24:00;;;;;;;9.98;8.85;;;;;;;18.50;nan;100322.69;5067455;28;20036;-77
2021/07/04 05:26:26;;;;;;;9.43;8.43;;;;;;;18.66;nan;100322.03;5068665;28;20040;-76
2021/07/04 05:28:51;;;;;;;8.32;7.50;;;;;;;18.78;nan;100321.53;5066318;28;20091;-77
2021/07/04 05:31:16;;;;;;;9.70;8.55;;;;;;;18.78;nan;100327.72;5066779;28;20036;-77
2021/07/04 05:33:42;;;;;;;8.77;7.53;;;;;;;18.87;nan;100325.63;5067413;28;20052;-76
2021/07/04 05:36:07;;;;;;;9.98;8.32;;;;;;;19.07;nan;100327.41;5064518;28;20144;-77
2021/07/04 05:38:35;;;;;;;10.95;8.20;;;;;;;19.16;nan;100325.19;5068200;28;20100;-76
2021/07/04 05:41:01;;;;;;;8.48;7.68;;;;;;;19.41;nan;100326.75;5066803;28;20040;-76
2021/07/04 05:43:26;;;;;;;9.57;7.28;;;;;;;19.48;nan;100323.72;5069772;28;20033;-77
2021/07/04 05:45:51;;;;;;;8.40;6.97;;;;;;;19.58;nan;100326.84;5068216;28;20717;-77
2021/07/04 05:48:17;;;;;;;9.10;8.20;;;;;;;19.76;nan;100326.97;5070237;28;20824;-78
2021/07/04 05:50:42;;;;;;;10.38;7.63;;;;;;;19.91;nan;100320.84;5073108;28;20036;-78
2021/07/04 05:53:07;;;;;;;8.32;7.15;;;;;;;20.04;nan;100322.00;5072528;28;20029;-77
2021/07/04 05:55:33;;;;;;;7.55;5.93;;;;;;;20.27;nan;100317.31;5067226;28;20061;-77
2021/07/04 05:57:58;;;;;;;6.78;6.07;;;;;;;20.43;nan;100312.91;5066197;28;20120;-77
2021/07/04 06:00:23;;;;;;;6.97;5.85;;;;;;;20.64;nan;100310.13;5068789;28;20206;-77
2021/07/04 06:02:49;;;;;;;7.18;6.22;;;;;;;20.75;nan;100315.78;5067418;28;20390;-76
2021/07/04 06:05:17;;;;;;;7.40;6.60;;;;;;;20.83;nan;100310.94;5067830;28;20494;-77
2021/07/04 06:07:42;;;;;;;8.77;6.10;;;;;;;20.83;nan;100310.94;5069835;28;20051;-77
2021/07/04 06:10:08;;;;;;;6.78;6.03;;;;;;;20.76;nan;100304.13;5067300;28;20045;-77
2021/07/04 06:12:33;;;;;;;6.90;5.97;;;;;;;20.84;nan;100301.91;5067793;28;20029;-77
2021/07/04 06:14:59;;;;;;;7.35;5.65;;;;;;;20.83;nan;100304.66;5069254;28;20029;-77
2021/07/04 06:17:24;;;;;;;7.28;6.03;;;;;;;20.87;nan;100300.91;5067300;28;20076;-77
2021/07/04 06:19:49;;;;;;;7.90;5.43;;;;;;;20.84;nan;100299.25;5067896;28;20450;-77
2021/07/04 06:22:15;;;;;;;8.93;5.78;;;;;;;20.83;nan;100296.63;5069674;28;20044;-78
2021/07/04 06:24:40;;;;;;;7.07;5.63;;;;;;;20.72;nan;100291.81;5067129;28;20033;-78
2021/07/04 06:27:05;;;;;;;7.03;5.25;;;;;;;20.69;nan;100292.84;5070063;28;20040;-78
2021/07/04 06:29:31;;;;;;;7.32;5.10;;;;;;;20.70;nan;100296.44;5070530;28;20043;-78
2021/07/04 06:31:56;;;;;;;5.60;4.60;;;;;;;20.73;nan;100297.13;5067498;28;20065;-77
2021/07/04 06:34:21;;;;;;;6.03;4.97;;;;;;;20.71;nan;100290.09;5069980;28;20044;-77
2021/07/04 06:36:47;;;;;;;5.50;4.43;;;;;;;20.70;nan;100293.75;5072601;28;20044;-78
2021/07/04 06:39:12;;;;;;;7.13;5.60;;;;;;;20.62;nan;100282.53;5071733;28;20057;-77
2021/07/04 06:41:38;;;;;;;6.30;5.13;;;;;;;20.49;nan;100284.97;5074781;28;20036;-78
2021/07/04 06:44:03;;;;;;;8.23;4.93;;;;;;;20.41;nan;100282.66;5068185;28;20033;-77
2021/07/04 06:46:29;;;;;;;6.07;4.50;;;;;;;20.43;nan;100287.94;5063695;28;20044;-77
2021/07/04 06:48:54;;;;;;;6.13;5.18;;;;;;;20.54;nan;100281.13;5067675;28;20064;-77
2021/07/04 06:51:19;;;;;;;7.32;5.18;;;;;;;20.55;nan;100279.31;5064908;28;20171;-78
2021/07/04 06:53:45;;;;;;;8.30;5.32;;;;;;;20.65;nan;100277.88;5066236;28;20048;-77
2021/07/04 06:56:10;;;;;;;6.03;4.75;;;;;;;20.85;nan;100284.00;5067400;28;20035;-77
2021/07/04 06:58:36;;;;;;;8.13;5.47;;;;;;;20.98;nan;100280.59;5066499;28;20029;-77
2021/07/04 07:01:02;;;;;;;6.55;5.10;;;;;;;21.14;nan;100279.75;5066173;28;20037;-77
2021/07/04 07:03:27;;;;;;;5.88;5.00;;;;;;;21.25;nan;100274.72;5067558;28;20029;-78
2021/07/04 07:05:53;;;;;;;7.18;5.60;;;;;;;21.28;nan;100274.53;5065940;28;20055;-77
2021/07/04 07:08:18;;;;;;;5.90;5.30;;;;;;;21.38;nan;100273.13;5066972;28;20132;-78
2021/07/04 07:10:43;;;;;;;5.97;5.00;;;;;;;21.45;nan;100271.78;5069251;28;20028;-78
2021/07/04 07:13:09;;;;;;;6.07;5.07;;;;;;;21.52;nan;100277.72;5067143;28;20040;-78
2021/07/04 07:15:38;;;;;;;5.65;4.93;;;;;;;21.65;nan;100277.91;5066921;28;20115;-77
2021/07/04 07:18:03;;;;;;;6.35;4.50;;;;;;;21.81;nan;100273.38;5070199;28;20498;-77
2021/07/04 07:20:28;;;;;;;5.63;4.25;;;;;;;21.91;nan;100272.88;5067252;28;20108;-78
2021/07/04 07:22:54;;;;;;;5.93;4.70;;;;;;;21.97;nan;100272.50;5068750;28;20085;-78
2021/07/04 07:25:27;;;;;;;6.30;4.95;;;;;;;21.99;nan;100273.28;5067093;28;20032;-78
2021/07/04 07:27:54;;;;;;;6.43;4.32;;;;;;;22.07;nan;100268.34;5067063;28;20024;-78
2021/07/04 07:30:21;;;;;;;5.32;4.63;;;;;;;22.16;nan;100267.78;5066965;28;20049;-79
2021/07/04 07:32:47;;;;;;;5.55;3.90;;;;;;;22.30;nan;100269.72;5067647;28;20033;-77
2021/07/04 07:35:13;;;;;;;6.13;4.80;;;;;;;22.44;nan;100267.06;5068286;28;20035;-79
2021/07/04 07:37:41;;;;;;;7.88;4.60;;;;;;;22.56;nan;100268.16;5065955;28;20063;-79
2021/07/04 07:40:08;;;;;;;7.95;4.97;;;;;;;22.70;nan;100262.81;5069691;28;20060;-78
2021/07/04 07:42:44;;;;;;;5.60;4.47;;;;;;;22.76;nan;100251.66;5070611;28;20051;-77
2021/07/04 07:45:10;;;;;;;4.85;4.05;;;;;;;22.85;nan;100262.84;5072973;28;20029;-79
2021/07/04 07:47:36;;;;;;;5.93;3.97;;;;;;;22.93;nan;100253.31;5071425;28;20410;-78
2021/07/04 07:50:04;;;;;;;5.18;3.45;;;;;;;22.96;nan;100247.78;5074878;28;20083;-78
2021/07/04 07:52:29;;;;;;;7.43;4.40;;;;;;;22.95;nan;100237.06;5064199;28;20088;-78
2021/07/04 07:54:55;;;;;;;6.80;4.40;;;;;;;23.03;nan;100236.63;5071936;28;20036;-78
2021/07/04 07:57:20;;;;;;;5.35;4.25;;;;;;;23.13;nan;100235.09;5072697;28;20494;-78
2021/07/04 07:59:49;;;;;;;5.50;3.78;;;;;;;23.19;nan;100235.56;5055528;28;20044;-79
2021/07/04 08:02:15;;;;;;;5.10;3.75;;;;;;;23.34;nan;100230.16;5081653;28;20069;-79
2021/07/04 08:04:40;;;;;;;4.47;3.03;;;;;;;23.47;nan;100231.09;5082885;28;20048;-79
2021/07/04 08:07:06;;;;;;;4.72;2.92;;;;;;;23.62;nan;100227.41;5081539;28;20446;-79
2021/07/04 08:09:31;;;;;;;3.55;2.90;;;;;;;23.83;nan;100221.63;5081200;28;20056;-79
2021/07/04 08:11:57;;;;;;;5.45;4.07;;;;;;;23.94;nan;100227.16;5081031;28;20036;-79
2021/07/04 08:14:22;;;;;;;4.55;3.17;;;;;;;24.05;nan;100221.03;5076058;28;20037;-78
2021/07/04 08:16:52;;;;;;;5.03;3.60;;;;;;;24.19;nan;100222.81;5077578;28;20032;-78
2021/07/04 08:19:17;;;;;;;7.03;3.40;;;;;;;24.28;nan;100222.19;5079450;28;20037;-79
2021/07/04 08:21:43;;;;;;;4.68;3.42;;;;;;;24.30;nan;100220.25;5075089;28;20045;-78
2021/07/04 08:24:09;;;;;;;4.15;3.15;;;;;;;24.27;nan;100223.16;5076035;28;20043;-78
2021/07/04 08:26:35;;;;;;;4.32;3.38;;;;;;;24.37;nan;100220.72;5077546;28;20060;-77
2021/07/04 08:29:01;;;;;;;4.72;3.60;;;;;;;24.45;nan;100221.06;5074989;28;20041;-78
2021/07/04 08:31:27;;;;;;;6.47;3.70;;;;;;;24.51;nan;100219.78;5077900;28;20040;-78
2021/07/04 08:33:53;;;;;;;4.00;3.20;;;;;;;24.63;nan;100217.09;5076058;28;20131;-77
2021/07/04 08:36:18;;;;;;;6.00;3.70;;;;;;;24.79;nan;100211.50;5072785;28;20214;-77
2021/07/04 08:38:44;;;;;;;5.85;3.60;;;;;;;24.92;nan;100206.09;5074387;28;20090;-77
2021/07/04 08:41:10;;;;;;;4.90;3.42;;;;;;;24.96;nan;100196.78;5075250;28;20068;-78
2021/07/04 08:43:36;;;;;;;4.57;3.40;;;;;;;25.10;nan;100196.69;5073415;28;20463;-78
2021/07/04 08:46:04;;;;;;;7.50;4.05;;;;;;;25.02;nan;100203.56;5076353;28;20039;-78
2021/07/04 08:48:35;;;;;;;4.18;3.40;;;;;;;25.10;nan;100198.50;5075193;28;20070;-78
2021/07/04 08:51:00;;;;;;;3.95;3.22;;;;;;;25.11;nan;100190.28;5071331;28;20092;-78
2021/07/04 08:53:26;;;;;;;4.72;3.88;;;;;;;25.04;nan;100190.84;5067584;28;20025;-77
2021/07/04 08:55:51;;;;;;;4.65;3.30;;;;;;;25.16;nan;100184.59;5073598;28;20096;-78
2021/07/04 08:58:23;;;;;;;5.15;3.10;;;;;;;25.26;nan;100185.66;5073923;28;20032;-78
2021/07/04 09:01:13;;;;;;;4.70;3.60;;;;;;;25.34;nan;100182.41;5074170;28;20043;-78
2021/07/04 09:03:41;;;;;;;4.88;3.45;;;;;;;25.45;nan;100181.59;5071476;28;20048;-79
2021/07/04 09:06:06;;;;;;;5.50;3.17;;;;;;;25.47;nan;100175.09;5068048;28;20044;-77
2021/07/04 09:08:32;;;;;;;5.53;3.88;;;;;;;25.53;nan;100169.25;5071999;28;20083;-77
2021/07/04 09:11:18;;;;;;;4.32;3.22;;;;;;;25.54;nan;100170.09;5075642;28;20055;-77
2021/07/04 09:13:47;;;;;;;4.60;3.50;;;;;;;25.69;nan;100170.81;5074380;28;20495;-78
2021/07/04 09:16:15;;;;;;;3.85;3.17;;;;;;;25.83;nan;100164.34;5070740;28;20037;-78
2021/07/04 09:18:41;;;;;;;4.75;3.28;;;;;;;25.81;nan;100172.59;5067300;28;20079;-78
2021/07/04 09:21:22;;;;;;;4.45;3.20;;;;;;;25.84;nan;100166.09;5076068;28;20040;-78
2021/07/04 09:23:49;;;;;;;6.43;3.63;;;;;;;25.93;nan;100160.84;5074648;28;20036;-79
2021/07/04 09:26:37;;;;;;;4.07;3.20;;;;;;;26.11;nan;100165.84;5073400;28;20037;-78
2021/07/04 09:29:04;;;;;;;4.78;3.35;;;;;;;26.23;nan;100154.09;5070776;28;20458;-78
2021/07/04 09:31:29;;;;;;;5.53;3.90;;;;;;;26.39;nan;100149.19;5072115;28;20592;-79
2021/07/04 09:34:13;;;;;;;4.15;3.13;;;;;;;26.63;nan;100148.28;5076203;28;20256;-78
2021/07/04 09:36:41;;;;;;;6.55;3.25;;;;;;;26.95;nan;100147.56;5074657;28;20067;-79
2021/07/04 09:39:21;;;;;;;4.93;3.10;;;;;;;27.22;nan;100139.03;5075247;28;20058;-79
2021/07/04 09:42:05;;;;;;;4.32;3.28;;;;;;;27.32;nan;100140.00;5071435;28;20036;-79
2021/07/04 09:44:31;;;;;;;6.43;3.30;;;;;;;27.45;nan;100140.72;5071355;28;20096;-79
2021/07/04 09:47:13;;;;;;;4.25;3.38;;;;;;;27.44;nan;100144.44;5073791;28;20099;-80
2021/07/04 09:49:39;;;;;;;5.20;3.03;;;;;;;27.43;nan;100147.25;5039596;28;20037;-79
2021/07/04 09:52:15;;;;;;;3.70;2.92;;;;;;;27.77;nan;100139.88;5074027;28;20044;-79
2021/07/04 09:55:02;;;;;;;6.30;3.40;;;;;;;28.23;nan;100144.13;5069823;28;20041;-79
2021/07/04 09:57:48;;;;;;;3.53;2.90;;;;;;;28.51;nan;100133.63;5068129;28;20510;-79
2021/07/04 10:00:16;;;;;;;5.43;3.28;;;;;;;28.49;nan;100124.75;5070709;28;20958;-79
2021/07/04 10:03:03;;;;;;;4.60;2.80;;;;;;;28.49;nan;100131.03;5071612;28;20032;-79
2021/07/04 10:05:28;;;;;;;4.00;2.95;;;;;;;28.75;nan;100122.44;5072492;28;20120;-79
2021/07/04 10:07:53;;;;;;;4.65;3.17;;;;;;;28.75;nan;100123.31;5074759;28;20052;-79
2021/07/04 10:10:19;;;;;;;3.90;3.30;;;;;;;28.38;nan;100122.94;5074456;28;20089;-79
2021/07/04 10:12:44;;;;;;;4.50;3.08;;;;;;;27.64;nan;100117.50;5070539;28;20033;-79
2021/07/04 10:15:10;;;;;;;5.20;3.22;;;;;;;27.34;nan;100115.50;5074535;28;20059;-79
2021/07/04 10:17:36;;;;;;;6.40;3.25;;;;;;;27.53;nan;100121.97;5074634;28;20037;-79
2021/07/04 10:20:03;;;;;;;3.72;3.00;;;;;;;27.93;nan;100113.22;5071691;28;20047;-79
2021/07/04 10:22:37;;;;;;;3.92;2.90;;;;;;;28.21;nan;100115.41;5075004;28;20029;-79
2021/07/04 10:25:05;;;;;;;3.92;3.40;;;;;;;28.21;nan;100102.69;5075339;28;20032;-79
2021/07/04 10:27:33;;;;;;;4.93;3.38;;;;;;;28.13;nan;100102.50;5073396;28;20037;-79
2021/07/04 10:29:58;;;;;;;4.50;2.72;;;;;;;28.36;nan;100098.66;5072785;28;20037;-79
2021/07/04 10:32:24;;;;;;;5.45;3.22;;;;;;;28.57;nan;100103.22;5076330;28;20035;-78
2021/07/04 10:34:50;;;;;;;3.97;2.95;;;;;;;28.68;nan;100100.41;5073098;28;20096;-79
2021/07/04 10:37:29;;;;;;;4.00;3.20;;;;;;;28.71;nan;100091.97;5072810;28;20046;-78
2021/07/04 10:40:08;;;;;;;4.43;3.22;;;;;;;28.65;nan;100087.09;5078680;28;20037;-79
2021/07/04 10:42:38;;;;;;;4.50;3.13;;;;;;;28.59;nan;100087.66;5070796;28;20048;-78
2021/07/04 10:45:04;;;;;;;4.10;2.95;;;;;;;28.52;nan;100081.91;5074183;28;20029;-78
2021/07/04 10:47:33;;;;;;;4.30;3.17;;;;;;;28.61;nan;100081.09;5073013;28;20033;-78
2021/07/04 10:50:11;;;;;;;4.32;2.55;;;;;;;28.52;nan;100075.63;5069621;28;20556;-79
2021/07/04 10:52:42;;;;;;;4.55;2.90;;;;;;;28.59;nan;100079.53;5055112;28;20032;-79
2021/07/04 10:55:27;;;;;;;4.05;3.00;;;;;;;28.66;nan;100082.53;5074670;28;20047;-78
2021/07/04 10:57:55;;;;;;;4.25;3.10;;;;;;;28.56;nan;100083.38;5053106;28;20036;-78
2021/07/04 11:00:25;;;;;;;4.47;3.17;;;;;;;28.53;nan;100074.63;5073257;28;20036;-79
2021/07/04 11:02:54;;;;;;;4.00;3.03;;;;;;;28.23;nan;100076.28;5069276;28;20490;-78
2021/07/04 11:05:32;;;;;;;5.22;3.50;;;;;;;28.19;nan;100072.13;5070689;28;20053;-78
2021/07/04 11:07:57;;;;;;;5.13;3.35;;;;;;;28.23;nan;100070.88;5070137;28;20041;-80
2021/07/04 11:10:31;;;;;;;3.58;3.03;;;;;;;28.29;nan;100064.88;5072699;28;20051;-79
2021/07/04 11:13:25;;;;;;;3.75;3.15;;;;;;;28.31;nan;100065.63;5072256;28;20037;-79
2021/07/04 11:16:04;;;;;;;5.93;3.22;;;;;;;28.40;nan;100064.81;5068622;28;20072;-78
2021/07/04 11:18:38;;;;;;;4.80;3.50;;;;;;;28.41;nan;100058.38;5069449;28;20050;-79
2021/07/04 11:21:04;;;;;;;4.00;2.95;;;;;;;28.39;nan;100060.38;5067487;28;20033;-78
2021/07/04 11:23:29;;;;;;;4.40;3.20;;;;;;;28.35;nan;100053.53;5070168;28;20403;-79
2021/07/04 11:26:00;;;;;;;3.97;3.38;;;;;;;28.28;nan;100046.06;5069007;28;20040;-79
2021/07/04 11:28:33;;;;;;;5.50;3.33;;;;;;;28.32;nan;100048.38;5068294;28;20045;-80
2021/07/04 11:30:58;;;;;;;4.32;3.35;;;;;;;28.35;nan;100042.66;5068394;28;20037;-78
2021/07/04 11:33:29;;;;;;;3.95;3.10;;;;;;;28.14;nan;100045.41;5069787;28;20036;-78
2021/07/04 11:36:19;;;;;;;4.28;3.60;;;;;;;27.66;nan;100042.34;5069718;28;20070;-78
2021/07/04 11:39:08;;;;;;;5.78;3.28;;;;;;;27.49;nan;100036.50;5061090;28;20503;-78
2021/07/04 11:41:35;;;;;;;4.65;3.58;;;;;;;28.19;nan;100031.41;5064931;28;20060;-78
2021/07/04 11:44:16;;;;;;;5.28;3.60;;;;;;;28.75;nan;100032.84;5063596;28;20044;-77